Hatchet Mtn Atmospheric Data: 05/24/2022 Summary  Detailed Graphs  Station List

  Temperature     Wind Precipitation Visibility
Timestamp Air Wet
Bulb
Dew-
point
24-hr
Max
24-hr
Min
Relative
Humidity
Atmospheric
Pressure
Avg
Speed
Avg
Dir
Spot
Speed
Spot
Dir
Max
Speed
Max
Dir
  Rate Situation Start End 1 hr 3 hr 6 hr 12 hr 24 hr   Situation
Date Time °F °F °F °F °F % in Hg mph ° mph ° mph ° Y/N in/hr text Date Time Date Time in in in in in mi text
05/24/2022 12:00 AM 53.24 43.16 30.38 75.20 42.62 40.0 Not Reported 3.80 E 4.25 E 6.71 E No 0.000 No Precipitation 05/10/2022 07:42 PM 05/10/2022 07:47 PM 0.000 0.000 0.000 0.000 0.000 Not Reported Not Reported
05/24/2022 12:05 AM 53.24 42.98 29.84 75.20 42.62 40.0 Not Reported 3.13 E 6.49 E 6.49 E No 0.000 No Precipitation 05/10/2022 07:42 PM 05/10/2022 07:47 PM 0.000 0.000 0.000 0.000 0.000 Not Reported Not Reported
05/24/2022 12:10 AM 54.86 43.70 29.30 75.20 42.62 36.0 Not Reported 4.92 E 4.03 E 6.49 E No 0.000 No Precipitation 05/10/2022 07:42 PM 05/10/2022 07:47 PM 0.000 0.000 0.000 0.000 0.000 Not Reported Not Reported
05/24/2022 12:15 AM 54.14 43.16 28.76 75.20 42.62 37.0 Not Reported 5.14 E 5.59 E 5.82 E No 0.000 No Precipitation 05/10/2022 07:42 PM 05/10/2022 07:47 PM 0.000 0.000 0.000 0.000 0.000 Not Reported Not Reported
05/24/2022 12:20 AM 53.78 43.16 29.84 75.20 42.62 39.0 Not Reported 4.25 E 4.25 E 5.82 E No 0.000 No Precipitation 05/10/2022 07:42 PM 05/10/2022 07:47 PM 0.000 0.000 0.000 0.000 0.000 Not Reported Not Reported
05/24/2022 12:25 AM 53.78 43.16 29.48 75.20 42.62 38.0 Not Reported 3.13 E 4.03 E 6.71 NE No 0.000 No Precipitation 05/10/2022 07:42 PM 05/10/2022 07:47 PM 0.000 0.000 0.000 0.000 0.000 Not Reported Not Reported
05/24/2022 12:30 AM 52.88 42.62 29.48 75.20 42.62 39.0 Not Reported 4.03 SE 5.37 SE 6.71 NE No 0.000 No Precipitation 05/10/2022 07:42 PM 05/10/2022 07:47 PM 0.000 0.000 0.000 0.000 0.000 Not Reported Not Reported
05/24/2022 12:35 AM 52.16 42.44 30.02 75.20 42.62 41.0 Not Reported 2.01 E 3.36 SE 5.37 SE No 0.000 No Precipitation 05/10/2022 07:42 PM 05/10/2022 07:47 PM 0.000 0.000 0.000 0.000 0.000 Not Reported Not Reported
05/24/2022 12:40 AM 52.88 42.62 29.48 75.20 42.62 40.0 Not Reported 3.80 E 2.46 E 4.92 E No 0.000 No Precipitation 05/10/2022 07:42 PM 05/10/2022 07:47 PM 0.000 0.000 0.000 0.000 0.000 Not Reported Not Reported
05/24/2022 12:45 AM 52.88 42.62 29.48 75.20 42.62 40.0 Not Reported 3.58 E 6.04 E 6.04 E No 0.000 No Precipitation 05/10/2022 07:42 PM 05/10/2022 07:47 PM 0.000 0.000 0.000 0.000 0.000 Not Reported Not Reported
05/24/2022 12:50 AM 52.34 42.44 29.84 75.20 42.62 41.0 Not Reported 3.36 E 4.03 E 6.04 E No 0.000 No Precipitation 05/10/2022 07:42 PM 05/10/2022 07:47 PM 0.000 0.000 0.000 0.000 0.000 Not Reported Not Reported
05/24/2022 12:55 AM 52.70 42.62 29.66 75.20 42.62 40.0 Not Reported 5.82 E 5.14 E 7.16 E No 0.000 No Precipitation 05/10/2022 07:42 PM 05/10/2022 07:47 PM 0.000 0.000 0.000 0.000 0.000 Not Reported Not Reported
05/24/2022 01:00 AM 52.88 42.80 29.66 75.20 42.62 40.0 Not Reported 5.37 E 4.70 E 7.16 E No 0.000 No Precipitation 05/10/2022 07:42 PM 05/10/2022 07:47 PM 0.000 0.000 0.000 0.000 0.000 Not Reported Not Reported
05/24/2022 01:05 AM 53.42 42.80 29.30 75.20 42.62 38.0 Not Reported 4.25 E 4.25 SE 6.26 E No 0.000 No Precipitation 05/10/2022 07:42 PM 05/10/2022 07:47 PM 0.000 0.000 0.000 0.000 0.000 Not Reported Not Reported
05/24/2022 01:10 AM 52.34 42.44 29.84 75.20 42.62 41.0 Not Reported 2.01 E 1.12 NE 6.26 E No 0.000 No Precipitation 05/10/2022 07:42 PM 05/10/2022 07:47 PM 0.000 0.000 0.000 0.000 0.000 Not Reported Not Reported
05/24/2022 01:15 AM 52.16 42.44 30.20 75.20 42.62 42.0 Not Reported 2.24 E 4.25 E 4.25 SE No 0.000 No Precipitation 05/10/2022 07:42 PM 05/10/2022 07:47 PM 0.000 0.000 0.000 0.000 0.000 Not Reported Not Reported
05/24/2022 01:20 AM 51.80 42.44 30.56 75.20 42.62 43.0 Not Reported 2.68 E 2.46 NE 4.47 E No 0.000 No Precipitation 05/10/2022 07:42 PM 05/10/2022 07:47 PM 0.000 0.000 0.000 0.000 0.000 Not Reported Not Reported
05/24/2022 01:25 AM 51.62 42.08 29.66 75.20 42.62 42.0 Not Reported 3.13 E 2.68 E 4.70 E No 0.000 No Precipitation 05/10/2022 07:42 PM 05/10/2022 07:47 PM 0.000 0.000 0.000 0.000 0.000 Not Reported Not Reported
05/24/2022 01:30 AM 51.98 42.26 29.48 75.20 42.62 41.0 Not Reported 2.24 E 3.13 E 4.70 E No 0.000 No Precipitation 05/10/2022 07:42 PM 05/10/2022 07:47 PM 0.000 0.000 0.000 0.000 0.000 Not Reported Not Reported
05/24/2022 01:35 AM 52.52 42.44 29.12 75.20 42.62 40.0 Not Reported 3.80 E 3.36 E 4.92 E No 0.000 No Precipitation 05/10/2022 07:42 PM 05/10/2022 07:47 PM 0.000 0.000 0.000 0.000 0.000 Not Reported Not Reported
05/24/2022 01:40 AM 53.60 42.62 28.40 75.20 42.62 37.0 Not Reported 3.13 E 5.59 E 5.59 E No 0.000 No Precipitation 05/10/2022 07:42 PM 05/10/2022 07:47 PM 0.000 0.000 0.000 0.000 0.000 Not Reported Not Reported
05/24/2022 01:45 AM 54.32 42.98 28.40 75.20 42.62 36.0 Not Reported 5.37 E 4.25 E 5.82 E No 0.000 No Precipitation 05/10/2022 07:42 PM 05/10/2022 07:47 PM 0.000 0.000 0.000 0.000 0.000 Not Reported Not Reported
05/24/2022 01:50 AM 54.50 43.16 28.22 75.20 42.62 36.0 Not Reported 6.26 E 5.37 NE 7.16 E No 0.000 No Precipitation 05/10/2022 07:42 PM 05/10/2022 07:47 PM 0.000 0.000 0.000 0.000 0.000 Not Reported Not Reported
05/24/2022 01:55 AM 53.60 42.80 28.94 75.20 42.62 38.0 Not Reported 3.36 E 3.80 E 7.16 E No 0.000 No Precipitation 05/10/2022 07:42 PM 05/10/2022 07:47 PM 0.000 0.000 0.000 0.000 0.000 Not Reported Not Reported
05/24/2022 02:00 AM 53.24 42.62 28.76 75.20 42.62 38.0 Not Reported 5.82 E 6.49 SE 6.49 E No 0.000 No Precipitation 05/10/2022 07:42 PM 05/10/2022 07:47 PM 0.000 0.000 0.000 0.000 0.000 Not Reported Not Reported
05/24/2022 02:05 AM 53.60 42.80 28.94 75.20 42.62 38.0 Not Reported 4.47 E 3.58 NE 6.49 E No 0.000 No Precipitation 05/10/2022 07:42 PM 05/10/2022 07:47 PM 0.000 0.000 0.000 0.000 0.000 Not Reported Not Reported
05/24/2022 02:10 AM 52.88 42.44 28.94 75.20 42.62 39.0 Not Reported 2.91 E 3.13 E 6.49 SE No 0.000 No Precipitation 05/10/2022 07:42 PM 05/10/2022 07:47 PM 0.000 0.000 0.000 0.000 0.000 Not Reported Not Reported
05/24/2022 02:15 AM 53.24 42.62 28.76 75.20 42.62 38.0 Not Reported 4.25 E 4.03 E 5.37 E No 0.000 No Precipitation 05/10/2022 07:42 PM 05/10/2022 07:47 PM 0.000 0.000 0.000 0.000 0.000 Not Reported Not Reported
05/24/2022 02:20 AM 53.60 42.80 28.76 75.20 42.62 37.0 Not Reported 5.37 E 5.82 NE 6.71 E No 0.000 No Precipitation 05/10/2022 07:42 PM 05/10/2022 07:47 PM 0.000 0.000 0.000 0.000 0.000 Not Reported Not Reported
05/24/2022 02:25 AM 53.24 42.62 28.94 75.20 42.62 38.0 Not Reported 4.92 E 6.04 E 6.71 E No 0.000 No Precipitation 05/10/2022 07:42 PM 05/10/2022 07:47 PM 0.000 0.000 0.000 0.000 0.000 Not Reported Not Reported
05/24/2022 02:30 AM 52.88 42.62 29.30 75.20 42.62 39.0 Not Reported 4.47 E 6.26 E 7.38 E No 0.000 No Precipitation 05/10/2022 07:42 PM 05/10/2022 07:47 PM 0.000 0.000 0.000 0.000 0.000 Not Reported Not Reported
05/24/2022 02:35 AM 51.44 41.90 29.30 75.20 42.62 42.0 Not Reported 5.59 E 7.83 E 7.83 E No 0.000 No Precipitation 05/10/2022 07:42 PM 05/10/2022 07:47 PM 0.000 0.000 0.000 0.000 0.000 Not Reported Not Reported
05/24/2022 02:40 AM 51.98 42.26 29.84 75.20 42.62 41.0 Not Reported 5.82 E 5.59 E 7.83 E No 0.000 No Precipitation 05/10/2022 07:42 PM 05/10/2022 07:47 PM 0.000 0.000 0.000 0.000 0.000 Not Reported Not Reported
05/24/2022 02:45 AM 51.98 42.62 30.92 75.20 42.62 43.0 Not Reported 4.92 E 3.13 SE 6.71 E No 0.000 No Precipitation 05/10/2022 07:42 PM 05/10/2022 07:47 PM 0.000 0.000 0.000 0.000 0.000 Not Reported Not Reported
05/24/2022 02:50 AM 50.36 41.72 30.56 75.20 42.62 46.0 Not Reported 4.70 E 6.71 SE 6.71 SE No 0.000 No Precipitation 05/10/2022 07:42 PM 05/10/2022 07:47 PM 0.000 0.000 0.000 0.000 0.000 Not Reported Not Reported
05/24/2022 02:55 AM 50.36 41.72 30.74 75.20 42.62 46.0 Not Reported 6.04 E 4.03 SE 8.28 SE No 0.000 No Precipitation 05/10/2022 07:42 PM 05/10/2022 07:47 PM 0.000 0.000 0.000 0.000 0.000 Not Reported Not Reported
05/24/2022 03:00 AM 49.10 41.18 30.74 75.20 42.62 48.0 Not Reported 4.92 SE 3.58 E 8.28 SE No 0.000 No Precipitation 05/10/2022 07:42 PM 05/10/2022 07:47 PM 0.000 0.000 0.000 0.000 0.000 Not Reported Not Reported
05/24/2022 03:05 AM 48.20 40.82 31.28 75.20 42.62 51.0 Not Reported 3.13 SE 3.13 SE 5.37 E No 0.000 No Precipitation 05/10/2022 07:42 PM 05/10/2022 07:47 PM 0.000 0.000 0.000 0.000 0.000 Not Reported Not Reported
05/24/2022 03:10 AM 48.02 40.64 31.10 75.20 42.62 51.0 Not Reported 2.91 SE 4.03 SE 4.47 E No 0.000 No Precipitation 05/10/2022 07:42 PM 05/10/2022 07:47 PM 0.000 0.000 0.000 0.000 0.000 Not Reported Not Reported
05/24/2022 03:15 AM 48.38 41.00 31.64 75.20 42.62 51.0 Not Reported 2.68 SE 4.25 E 5.37 SE No 0.000 No Precipitation 05/10/2022 07:42 PM 05/10/2022 07:47 PM 0.000 0.000 0.000 0.000 0.000 Not Reported Not Reported
05/24/2022 03:20 AM 47.66 40.82 32.00 75.20 42.62 54.0 Not Reported 1.57 SE 0.45 SE 5.37 SE No 0.000 No Precipitation 05/10/2022 07:42 PM 05/10/2022 07:47 PM 0.000 0.000 0.000 0.000 0.000 Not Reported Not Reported
05/24/2022 03:25 AM 47.30 40.46 32.00 75.20 42.62 54.0 Not Reported 0.89 SE 0.00 NE 4.70 SE No 0.000 No Precipitation 05/10/2022 07:42 PM 05/10/2022 07:47 PM 0.000 0.000 0.000 0.000 0.000 Not Reported Not Reported
05/24/2022 03:30 AM 47.30 40.46 31.82 75.20 42.62 54.0 Not Reported 2.24 SE 1.34 E 3.80 SE No 0.000 No Precipitation 05/10/2022 07:42 PM 05/10/2022 07:47 PM 0.000 0.000 0.000 0.000 0.000 Not Reported Not Reported
05/24/2022 03:35 AM 47.12 40.46 31.82 75.20 42.62 54.0 Not Reported 2.24 SE 4.47 E 5.37 E No 0.000 No Precipitation 05/10/2022 07:42 PM 05/10/2022 07:47 PM 0.000 0.000 0.000 0.000 0.000 Not Reported Not Reported
05/24/2022 03:40 AM 48.38 40.82 31.46 75.20 42.62 51.0 Not Reported 4.70 E 6.26 E 6.26 E No 0.000 No Precipitation 05/10/2022 07:42 PM 05/10/2022 07:47 PM 0.000 0.000 0.000 0.000 0.000 Not Reported Not Reported
05/24/2022 03:45 AM 49.64 41.72 31.82 75.20 42.62 49.0 Not Reported 6.26 E 6.93 SE 7.83 E No 0.000 No Precipitation 05/10/2022 07:42 PM 05/10/2022 07:47 PM 0.000 0.000 0.000 0.000 0.000 Not Reported Not Reported
05/24/2022 03:50 AM 50.90 42.08 31.10 75.20 42.62 46.0 Not Reported 5.59 E 5.59 E 7.83 E No 0.000 No Precipitation 05/10/2022 07:42 PM 05/10/2022 07:47 PM 0.000 0.000 0.000 0.000 0.000 Not Reported Not Reported
05/24/2022 03:55 AM 52.16 42.80 30.92 75.20 42.62 43.0 Not Reported 6.04 E 5.59 E 7.83 E No 0.000 No Precipitation 05/10/2022 07:42 PM 05/10/2022 07:47 PM 0.000 0.000 0.000 0.000 0.000 Not Reported Not Reported
05/24/2022 04:00 AM 52.34 42.80 30.74 75.20 42.62 43.0 Not Reported 6.93 E 6.26 E 7.83 E No 0.000 No Precipitation 05/10/2022 07:42 PM 05/10/2022 07:47 PM 0.000 0.000 0.000 0.000 0.000 Not Reported Not Reported
05/24/2022 04:05 AM 52.16 42.80 30.74 75.20 42.62 43.0 Not Reported 7.61 E 6.49 E 8.28 E No 0.000 No Precipitation 05/10/2022 07:42 PM 05/10/2022 07:47 PM 0.000 0.000 0.000 0.000 0.000 Not Reported Not Reported
05/24/2022 04:10 AM 52.16 42.62 30.74 75.20 42.62 43.0 Not Reported 6.26 E 7.38 E 8.28 E No 0.000 No Precipitation 05/10/2022 07:42 PM 05/10/2022 07:47 PM 0.000 0.000 0.000 0.000 0.000 Not Reported Not Reported
05/24/2022 04:15 AM 52.16 42.80 30.92 75.20 42.62 43.0 Not Reported 7.16 E 7.83 SE 8.50 NE No 0.000 No Precipitation 05/10/2022 07:42 PM 05/10/2022 07:47 PM 0.000 0.000 0.000 0.000 0.000 Not Reported Not Reported
05/24/2022 04:20 AM 52.16 42.80 31.10 75.20 42.62 44.0 Not Reported 7.16 E 6.71 E 8.50 NE No 0.000 No Precipitation 05/10/2022 07:42 PM 05/10/2022 07:47 PM 0.000 0.000 0.000 0.000 0.000 Not Reported Not Reported
05/24/2022 04:25 AM 51.80 42.44 30.92 75.20 42.62 44.0 Not Reported 7.38 E 7.38 NE 8.50 E No 0.000 No Precipitation 05/10/2022 07:42 PM 05/10/2022 07:47 PM 0.000 0.000 0.000 0.000 0.000 Not Reported Not Reported
05/24/2022 04:30 AM 50.54 42.08 31.64 75.20 42.62 47.0 Not Reported 7.61 SE 7.38 E 8.50 E No 0.000 No Precipitation 05/10/2022 07:42 PM 05/10/2022 07:47 PM 0.000 0.000 0.000 0.000 0.000 Not Reported Not Reported
05/24/2022 04:35 AM 50.00 41.72 31.28 75.20 42.62 48.0 Not Reported 7.83 E 7.16 NE 8.50 E No 0.000 No Precipitation 05/10/2022 07:42 PM 05/10/2022 07:47 PM 0.000 0.000 0.000 0.000 0.000 Not Reported Not Reported
05/24/2022 04:40 AM 49.46 41.72 32.00 75.20 42.62 50.0 Not Reported 6.04 SE 4.70 E 8.50 E No 0.000 No Precipitation 05/10/2022 07:42 PM 05/10/2022 07:47 PM 0.000 0.000 0.000 0.000 0.000 Not Reported Not Reported
05/24/2022 04:45 AM 48.38 41.18 32.00 75.20 42.62 52.0 Not Reported 5.37 SE 5.14 SE 7.16 E No 0.000 No Precipitation 05/10/2022 07:42 PM 05/10/2022 07:47 PM 0.000 0.000 0.000 0.000 0.000 Not Reported Not Reported
05/24/2022 04:50 AM 47.66 40.82 32.00 75.20 42.62 54.0 Not Reported 3.36 SE 3.80 SE 7.16 E No 0.000 No Precipitation 05/10/2022 07:42 PM 05/10/2022 07:47 PM 0.000 0.000 0.000 0.000 0.000 Not Reported Not Reported
05/24/2022 04:55 AM 47.48 40.64 31.64 75.20 42.62 53.0 Not Reported 3.80 E 6.93 SE 6.93 SE No 0.000 No Precipitation 05/10/2022 07:42 PM 05/10/2022 07:47 PM 0.000 0.000 0.000 0.000 0.000 Not Reported Not Reported
05/24/2022 05:00 AM 47.84 40.82 32.00 75.20 42.62 53.0 Not Reported 4.47 SE 6.26 E 7.16 SE No 0.000 No Precipitation 05/10/2022 07:42 PM 05/10/2022 07:47 PM 0.000 0.000 0.000 0.000 0.000 Not Reported Not Reported
05/24/2022 05:05 AM 48.02 41.00 32.00 75.20 42.62 53.0 Not Reported 4.92 SE 6.93 E 7.16 SE No 0.000 No Precipitation 05/10/2022 07:42 PM 05/10/2022 07:47 PM 0.000 0.000 0.000 0.000 0.000 Not Reported Not Reported
05/24/2022 05:10 AM 47.48 40.64 32.00 75.20 42.62 54.0 Not Reported 4.03 E 7.38 SE 7.38 SE No 0.000 No Precipitation 05/10/2022 07:42 PM 05/10/2022 07:47 PM 0.000 0.000 0.000 0.000 0.000 Not Reported Not Reported
05/24/2022 05:15 AM 47.30 40.64 32.00 75.20 42.62 54.0 Not Reported 4.92 SE 5.59 E 7.38 SE No 0.000 No Precipitation 05/10/2022 07:42 PM 05/10/2022 07:47 PM 0.000 0.000 0.000 0.000 0.000 Not Reported Not Reported
05/24/2022 05:20 AM 47.66 40.82 32.18 75.20 42.62 54.0 Not Reported 5.14 E 5.59 E 7.16 SE No 0.000 No Precipitation 05/10/2022 07:42 PM 05/10/2022 07:47 PM 0.000 0.000 0.000 0.000 0.000 Not Reported Not Reported
05/24/2022 05:25 AM 47.30 40.82 32.18 75.20 42.62 55.0 Not Reported 4.47 SE 2.91 SE 6.04 SE No 0.000 No Precipitation 05/10/2022 07:42 PM 05/10/2022 07:47 PM 0.000 0.000 0.000 0.000 0.000 Not Reported Not Reported
05/24/2022 05:30 AM 46.94 40.46 32.18 75.20 42.62 56.0 Not Reported 3.36 SE 5.82 SE 6.49 E No 0.000 No Precipitation 05/10/2022 07:42 PM 05/10/2022 07:47 PM 0.000 0.000 0.000 0.000 0.000 Not Reported Not Reported
05/24/2022 05:35 AM 47.30 40.82 32.18 75.20 42.62 55.0 Not Reported 6.49 E 4.03 SE 7.16 E No 0.000 No Precipitation 05/10/2022 07:42 PM 05/10/2022 07:47 PM 0.000 0.000 0.000 0.000 0.000 Not Reported Not Reported
05/24/2022 05:40 AM 46.76 40.28 32.00 75.20 42.62 56.0 Not Reported 4.03 SE 5.37 SE 7.16 E No 0.000 No Precipitation 05/10/2022 07:42 PM 05/10/2022 07:47 PM 0.000 0.000 0.000 0.000 0.000 Not Reported Not Reported
05/24/2022 05:45 AM 48.20 41.18 32.18 75.20 42.62 53.0 Not Reported 7.38 E 9.40 SE 9.40 SE No 0.000 No Precipitation 05/10/2022 07:42 PM 05/10/2022 07:47 PM 0.000 0.000 0.000 0.000 0.000 Not Reported Not Reported
05/24/2022 05:50 AM 48.20 41.00 32.00 75.20 42.62 53.0 Not Reported 6.71 E 6.71 E 9.40 SE No 0.000 No Precipitation 05/10/2022 07:42 PM 05/10/2022 07:47 PM 0.000 0.000 0.000 0.000 0.000 Not Reported Not Reported
05/24/2022 05:55 AM 48.92 41.36 32.00 75.20 42.80 51.0 Not Reported 6.93 E 6.71 E 8.05 E No 0.000 No Precipitation 05/10/2022 07:42 PM 05/10/2022 07:47 PM 0.000 0.000 0.000 0.000 0.000 Not Reported Not Reported
05/24/2022 06:00 AM 49.64 41.72 32.00 75.20 42.80 49.0 Not Reported 6.49 E 6.26 E 7.61 SE No 0.000 No Precipitation 05/10/2022 07:42 PM 05/10/2022 07:47 PM 0.000 0.000 0.000 0.000 0.000 Not Reported Not Reported
05/24/2022 06:05 AM 49.82 41.90 31.82 75.20 42.98 49.0 Not Reported 6.49 E 8.05 E 9.17 E No 0.000 No Precipitation 05/10/2022 07:42 PM 05/10/2022 07:47 PM 0.000 0.000 0.000 0.000 0.000 Not Reported Not Reported
05/24/2022 06:10 AM 49.64 41.90 32.00 75.20 42.98 49.0 Not Reported 7.38 E 8.72 E 9.62 E No 0.000 No Precipitation 05/10/2022 07:42 PM 05/10/2022 07:47 PM 0.000 0.000 0.000 0.000 0.000 Not Reported Not Reported
05/24/2022 06:15 AM 49.46 41.72 32.00 75.20 42.98 50.0 Not Reported 8.28 E 9.17 SE 9.62 E No 0.000 No Precipitation 05/10/2022 07:42 PM 05/10/2022 07:47 PM 0.000 0.000 0.000 0.000 0.000 Not Reported Not Reported
05/24/2022 06:20 AM 49.64 41.72 32.00 75.20 42.98 50.0 Not Reported 8.05 E 8.95 E 9.84 E No 0.000 No Precipitation 05/10/2022 07:42 PM 05/10/2022 07:47 PM 0.000 0.000 0.000 0.000 0.000 Not Reported Not Reported
05/24/2022 06:25 AM 49.82 42.08 32.18 75.20 42.98 50.0 Not Reported 7.83 E 7.83 E 9.84 E No 0.000 No Precipitation 05/10/2022 07:42 PM 05/10/2022 07:47 PM 0.000 0.000 0.000 0.000 0.000 Not Reported Not Reported
05/24/2022 06:30 AM 49.64 42.08 32.54 75.20 43.34 51.0 Not Reported 7.38 E 6.93 E 9.40 E No 0.000 No Precipitation 05/10/2022 07:42 PM 05/10/2022 07:47 PM 0.000 0.000 0.000 0.000 0.000 Not Reported Not Reported
05/24/2022 06:35 AM 49.64 42.08 32.54 75.20 43.70 51.0 Not Reported 6.93 E 6.93 E 7.83 E No 0.000 No Precipitation 05/10/2022 07:42 PM 05/10/2022 07:47 PM 0.000 0.000 0.000 0.000 0.000 Not Reported Not Reported
05/24/2022 06:40 AM 49.64 41.90 32.18 75.20 44.24 51.0 Not Reported 7.38 E 6.71 E 8.50 E No 0.000 No Precipitation 05/10/2022 07:42 PM 05/10/2022 07:47 PM 0.000 0.000 0.000 0.000 0.000 Not Reported Not Reported
05/24/2022 06:45 AM 49.82 42.26 32.72 75.20 46.58 51.0 Not Reported 7.83 E 6.93 E 9.40 E No 0.000 No Precipitation 05/10/2022 07:42 PM 05/10/2022 07:47 PM 0.000 0.000 0.000 0.000 0.000 Not Reported Not Reported
05/24/2022 06:50 AM 49.82 42.26 32.72 75.20 46.58 51.0 Not Reported 7.16 E 8.28 E 9.40 E No 0.000 No Precipitation 05/10/2022 07:42 PM 05/10/2022 07:47 PM 0.000 0.000 0.000 0.000 0.000 Not Reported Not Reported
05/24/2022 06:55 AM 50.54 42.44 32.54 75.20 46.58 49.0 Not Reported 7.16 E 8.95 E 8.95 E No 0.000 No Precipitation 05/10/2022 07:42 PM 05/10/2022 07:47 PM 0.000 0.000 0.000 0.000 0.000 Not Reported Not Reported
05/24/2022 07:00 AM 51.08 42.98 32.90 75.20 46.58 49.0 Not Reported 7.83 E 7.83 E 8.95 E No 0.000 No Precipitation 05/10/2022 07:42 PM 05/10/2022 07:47 PM 0.000 0.000 0.000 0.000 0.000 Not Reported Not Reported
05/24/2022 07:05 AM 51.26 42.80 32.54 75.20 46.58 48.0 Not Reported 6.93 E 6.93 E 8.50 E No 0.000 No Precipitation 05/10/2022 07:42 PM 05/10/2022 07:47 PM 0.000 0.000 0.000 0.000 0.000 Not Reported Not Reported
05/24/2022 07:10 AM 51.62 43.16 32.54 75.20 46.58 47.0 Not Reported 6.71 E 7.61 E 8.28 E No 0.000 No Precipitation 05/10/2022 07:42 PM 05/10/2022 07:47 PM 0.000 0.000 0.000 0.000 0.000 Not Reported Not Reported
05/24/2022 07:15 AM 51.62 43.16 33.08 75.20 46.58 48.0 Not Reported 5.82 E 6.04 E 8.28 E No 0.000 No Precipitation 05/10/2022 07:42 PM 05/10/2022 07:47 PM 0.000 0.000 0.000 0.000 0.000 Not Reported Not Reported
05/24/2022 07:20 AM 51.26 43.16 33.08 75.20 46.58 49.0 Not Reported 5.59 E 5.59 E 8.72 E No 0.000 No Precipitation 05/10/2022 07:42 PM 05/10/2022 07:47 PM 0.000 0.000 0.000 0.000 0.000 Not Reported Not Reported
05/24/2022 07:25 AM 51.26 42.98 32.90 75.20 46.58 49.0 Not Reported 6.93 E 6.49 E 8.72 E No 0.000 No Precipitation 05/10/2022 07:42 PM 05/10/2022 07:47 PM 0.000 0.000 0.000 0.000 0.000 Not Reported Not Reported
05/24/2022 07:30 AM 51.44 43.16 33.08 75.20 46.58 49.0 Not Reported 6.49 E 8.05 E 9.17 SE No 0.000 No Precipitation 05/10/2022 07:42 PM 05/10/2022 07:47 PM 0.000 0.000 0.000 0.000 0.000 Not Reported Not Reported
05/24/2022 07:35 AM 51.80 43.34 33.08 75.20 46.58 48.0 Not Reported 5.37 E 6.49 SE 9.17 SE No 0.000 No Precipitation 05/10/2022 07:42 PM 05/10/2022 07:47 PM 0.000 0.000 0.000 0.000 0.000 Not Reported Not Reported
05/24/2022 07:40 AM 51.44 43.16 33.08 75.20 46.58 49.0 Not Reported 8.28 E 6.93 NE 8.72 SE No 0.000 No Precipitation 05/10/2022 07:42 PM 05/10/2022 07:47 PM 0.000 0.000 0.000 0.000 0.000 Not Reported Not Reported
05/24/2022 07:45 AM 51.44 43.34 33.26 75.20 46.58 49.0 Not Reported 7.38 E 6.71 E 8.72 SE No 0.000 No Precipitation 05/10/2022 07:42 PM 05/10/2022 07:47 PM 0.000 0.000 0.000 0.000 0.000 Not Reported Not Reported
05/24/2022 07:50 AM 51.80 43.52 33.44 75.20 46.58 49.0 Not Reported 7.16 E 6.04 NE 10.07 E No 0.000 No Precipitation 05/10/2022 07:42 PM 05/10/2022 07:47 PM 0.000 0.000 0.000 0.000 0.000 Not Reported Not Reported
05/24/2022 07:55 AM 52.16 43.52 33.26 75.20 46.58 48.0 Not Reported 7.83 E 7.16 E 10.07 E No 0.000 No Precipitation 05/10/2022 07:42 PM 05/10/2022 07:47 PM 0.000 0.000 0.000 0.000 0.000 Not Reported Not Reported
05/24/2022 08:00 AM 51.98 43.52 33.26 75.20 46.58 48.0 Not Reported 10.07 E 8.05 E 12.08 E No 0.000 No Precipitation 05/10/2022 07:42 PM 05/10/2022 07:47 PM 0.000 0.000 0.000 0.000 0.000 Not Reported Not Reported
05/24/2022 08:05 AM 52.16 43.70 33.62 75.20 46.58 48.0 Not Reported 7.16 E 10.07 E 12.08 E No 0.000 No Precipitation 05/10/2022 07:42 PM 05/10/2022 07:47 PM 0.000 0.000 0.000 0.000 0.000 Not Reported Not Reported
05/24/2022 08:10 AM 52.70 44.06 33.80 75.20 46.58 48.0 Not Reported 7.16 E 6.26 E 10.74 E No 0.000 No Precipitation 05/10/2022 07:42 PM 05/10/2022 07:47 PM 0.000 0.000 0.000 0.000 0.000 Not Reported Not Reported
05/24/2022 08:15 AM 52.34 43.88 33.62 75.20 46.58 48.0 Not Reported 8.05 E 7.83 E 8.95 E No 0.000 No Precipitation 05/10/2022 07:42 PM 05/10/2022 07:47 PM 0.000 0.000 0.000 0.000 0.000 Not Reported Not Reported
05/24/2022 08:20 AM 52.16 43.88 33.98 75.20 46.58 49.0 Not Reported 8.05 E 7.83 E 8.95 E No 0.000 No Precipitation 05/10/2022 07:42 PM 05/10/2022 07:47 PM 0.000 0.000 0.000 0.000 0.000 Not Reported Not Reported
05/24/2022 08:25 AM 52.70 44.42 34.70 75.20 46.58 49.0 Not Reported 7.61 E 6.93 NE 12.08 NE No 0.000 No Precipitation 05/10/2022 07:42 PM 05/10/2022 07:47 PM 0.000 0.000 0.000 0.000 0.000 Not Reported Not Reported
05/24/2022 08:30 AM 53.24 44.60 34.52 75.20 46.58 48.0 Not Reported 7.16 E 8.50 NE 12.08 NE No 0.000 No Precipitation 05/10/2022 07:42 PM 05/10/2022 07:47 PM 0.000 0.000 0.000 0.000 0.000 Not Reported Not Reported
05/24/2022 08:35 AM 53.96 44.96 34.52 75.20 46.58 47.0 Not Reported 6.26 E 9.84 NE 10.07 E No 0.000 No Precipitation 05/10/2022 07:42 PM 05/10/2022 07:47 PM 0.000 0.000 0.000 0.000 0.000 Not Reported Not Reported
05/24/2022 08:40 AM 54.32 45.14 34.52 75.20 46.58 46.0 Not Reported 6.71 E 9.84 E 10.29 E No 0.000 No Precipitation 05/10/2022 07:42 PM 05/10/2022 07:47 PM 0.000 0.000 0.000 0.000 0.000 Not Reported Not Reported
05/24/2022 08:45 AM 54.32 45.32 35.06 75.20 46.58 48.0 Not Reported 8.50 E 10.51 E 10.51 E No 0.000 No Precipitation 05/10/2022 07:42 PM 05/10/2022 07:47 PM 0.000 0.000 0.000 0.000 0.000 Not Reported Not Reported
05/24/2022 08:50 AM 55.40 45.86 35.24 75.20 46.58 46.0 Not Reported 7.61 E 7.16 NE 10.51 E No 0.000 No Precipitation 05/10/2022 07:42 PM 05/10/2022 07:47 PM 0.000 0.000 0.000 0.000 0.000 Not Reported Not Reported
05/24/2022 08:55 AM 55.58 46.04 35.42 75.20 46.58 46.0 Not Reported 8.05 E 6.49 E 9.84 NE No 0.000 No Precipitation 05/10/2022 07:42 PM 05/10/2022 07:47 PM 0.000 0.000 0.000 0.000 0.000 Not Reported Not Reported
05/24/2022 09:00 AM 55.22 45.68 34.88 75.20 46.58 45.0 Not Reported 9.84 E 11.18 E 12.53 E No 0.000 No Precipitation 05/10/2022 07:42 PM 05/10/2022 07:47 PM 0.000 0.000 0.000 0.000 0.000 Not Reported Not Reported
05/24/2022 09:05 AM 55.94 46.04 35.06 75.20 46.58 45.0 Not Reported 7.83 E 5.37 NE 12.53 E No 0.000 No Precipitation 05/10/2022 07:42 PM 05/10/2022 07:47 PM 0.000 0.000 0.000 0.000 0.000 Not Reported Not Reported
05/24/2022 09:10 AM 56.48 46.22 34.70 75.20 46.58 43.0 Not Reported 6.49 NE 9.40 NE 11.18 E No 0.000 No Precipitation 05/10/2022 07:42 PM 05/10/2022 07:47 PM 0.000 0.000 0.000 0.000 0.000 Not Reported Not Reported
05/24/2022 09:15 AM 56.84 46.58 35.24 75.20 46.58 44.0 Not Reported 9.17 E 6.71 NE 11.86 E No 0.000 No Precipitation 05/10/2022 07:42 PM 05/10/2022 07:47 PM 0.000 0.000 0.000 0.000 0.000 Not Reported Not Reported
05/24/2022 09:20 AM 57.56 47.30 36.14 75.20 46.58 44.0 Not Reported 8.05 E 5.59 E 11.86 E No 0.000 No Precipitation 05/10/2022 07:42 PM 05/10/2022 07:47 PM 0.000 0.000 0.000 0.000 0.000 Not Reported Not Reported
05/24/2022 09:25 AM 58.28 47.48 35.96 75.20 46.58 43.0 Not Reported 6.26 E 7.16 E 9.40 E No 0.000 No Precipitation 05/10/2022 07:42 PM 05/10/2022 07:47 PM 0.000 0.000 0.000 0.000 0.000 Not Reported Not Reported
05/24/2022 09:30 AM 58.10 46.94 34.70 75.20 46.58 41.0 Not Reported 8.28 E 9.62 SE 12.97 SE No 0.000 No Precipitation 05/10/2022 07:42 PM 05/10/2022 07:47 PM 0.000 0.000 0.000 0.000 0.000 Not Reported Not Reported
05/24/2022 09:35 AM 58.28 47.48 35.78 75.20 46.58 42.0 Not Reported 7.83 E 6.93 NE 12.97 SE No 0.000 No Precipitation 05/10/2022 07:42 PM 05/10/2022 07:47 PM 0.000 0.000 0.000 0.000 0.000 Not Reported Not Reported
05/24/2022 09:40 AM 58.46 47.30 35.24 75.20 46.58 41.0 Not Reported 8.05 E 8.50 E 11.63 E No 0.000 No Precipitation 05/10/2022 07:42 PM 05/10/2022 07:47 PM 0.000 0.000 0.000 0.000 0.000 Not Reported Not Reported
05/24/2022 09:45 AM 59.54 48.20 36.32 75.20 46.58 41.0 Not Reported 5.82 E 7.38 SE 11.63 E No 0.000 No Precipitation 05/10/2022 07:42 PM 05/10/2022 07:47 PM 0.000 0.000 0.000 0.000 0.000 Not Reported Not Reported
05/24/2022 09:50 AM 60.26 48.02 34.88 75.20 46.58 38.0 Not Reported 6.49 E 6.93 E 8.95 E No 0.000 No Precipitation 05/10/2022 07:42 PM 05/10/2022 07:47 PM 0.000 0.000 0.000 0.000 0.000 Not Reported Not Reported
05/24/2022 09:55 AM 60.62 48.74 36.14 75.20 46.58 40.0 Not Reported 7.16 E 5.37 E 8.95 E No 0.000 No Precipitation 05/10/2022 07:42 PM 05/10/2022 07:47 PM 0.000 0.000 0.000 0.000 0.000 Not Reported Not Reported
05/24/2022 10:00 AM 60.62 48.20 34.70 75.20 46.58 37.0 Not Reported 6.49 E 10.07 E 10.07 E No 0.000 No Precipitation 05/10/2022 07:42 PM 05/10/2022 07:47 PM 0.000 0.000 0.000 0.000 0.000 Not Reported Not Reported
05/24/2022 10:05 AM 60.08 48.20 35.42 75.20 46.58 39.0 Not Reported 8.95 E 6.04 E 11.18 E No 0.000 No Precipitation 05/10/2022 07:42 PM 05/10/2022 07:47 PM 0.000 0.000 0.000 0.000 0.000 Not Reported Not Reported
05/24/2022 10:10 AM 61.16 48.38 34.70 75.20 46.58 36.0 Not Reported 6.04 E 9.62 NE 11.18 E No 0.000 No Precipitation 05/10/2022 07:42 PM 05/10/2022 07:47 PM 0.000 0.000 0.000 0.000 0.000 Not Reported Not Reported
05/24/2022 10:15 AM 61.16 47.84 32.90 75.20 46.58 34.0 Not Reported 9.84 E 9.84 E 12.08 E No 0.000 No Precipitation 05/10/2022 07:42 PM 05/10/2022 07:47 PM 0.000 0.000 0.000 0.000 0.000 Not Reported Not Reported
05/24/2022 10:20 AM 61.16 48.38 34.70 75.20 46.58 37.0 Not Reported 8.28 E 8.72 E 12.08 E No 0.000 No Precipitation 05/10/2022 07:42 PM 05/10/2022 07:47 PM 0.000 0.000 0.000 0.000 0.000 Not Reported Not Reported
05/24/2022 10:25 AM 62.06 48.74 34.52 75.20 46.58 35.0 Not Reported 7.83 E 10.29 E 11.41 E No 0.000 No Precipitation 05/10/2022 07:42 PM 05/10/2022 07:47 PM 0.000 0.000 0.000 0.000 0.000 Not Reported Not Reported
05/24/2022 10:30 AM 61.88 47.84 32.18 75.20 46.58 32.0 Not Reported 9.40 E 10.07 E 11.63 NE No 0.000 No Precipitation 05/10/2022 07:42 PM 05/10/2022 07:47 PM 0.000 0.000 0.000 0.000 0.000 Not Reported Not Reported
05/24/2022 10:35 AM 62.42 47.84 31.28 75.20 46.58 30.0 Not Reported 9.62 E 11.41 E 13.42 E No 0.000 No Precipitation 05/10/2022 07:42 PM 05/10/2022 07:47 PM 0.000 0.000 0.000 0.000 0.000 Not Reported Not Reported
05/24/2022 10:45 AM 62.78 48.02 31.28 75.20 46.58 30.0 Not Reported 10.51 E 7.61 NE 12.75 NE No 0.000 No Precipitation 05/10/2022 07:42 PM 05/10/2022 07:47 PM 0.000 0.000 0.000 0.000 0.000 Not Reported Not Reported
05/24/2022 10:50 AM 63.14 48.20 31.10 75.20 46.58 29.0 Not Reported 10.07 E 6.93 E 12.97 E No 0.000 No Precipitation 05/10/2022 07:42 PM 05/10/2022 07:47 PM 0.000 0.000 0.000 0.000 0.000 Not Reported Not Reported
05/24/2022 10:55 AM 62.96 47.12 27.50 75.20 46.58 25.0 Not Reported 10.96 E 7.61 E 12.97 E No 0.000 No Precipitation 05/10/2022 07:42 PM 05/10/2022 07:47 PM 0.000 0.000 0.000 0.000 0.000 Not Reported Not Reported
05/24/2022 11:00 AM 63.14 47.84 29.84 75.20 46.58 28.0 Not Reported 6.71 E 5.82 E 11.86 E No 0.000 No Precipitation 05/10/2022 07:42 PM 05/10/2022 07:47 PM 0.000 0.000 0.000 0.000 0.000 Not Reported Not Reported
05/24/2022 11:05 AM 64.58 48.38 29.84 75.20 46.58 26.0 Not Reported 10.07 E 9.40 E 10.74 E No 0.000 No Precipitation 05/10/2022 07:42 PM 05/10/2022 07:47 PM 0.000 0.000 0.000 0.000 0.000 Not Reported Not Reported
05/24/2022 11:10 AM 64.04 47.84 28.22 75.20 46.58 25.0 Not Reported 8.72 E 12.08 E 12.08 E No 0.000 No Precipitation 05/10/2022 07:42 PM 05/10/2022 07:47 PM 0.000 0.000 0.000 0.000 0.000 Not Reported Not Reported
05/24/2022 11:15 AM 65.12 48.20 27.68 75.20 46.58 24.0 Not Reported 2.91 E 10.74 E 12.08 E No 0.000 No Precipitation 05/10/2022 07:42 PM 05/10/2022 07:47 PM 0.000 0.000 0.000 0.000 0.000 Not Reported Not Reported
05/24/2022 11:20 AM 65.12 47.84 26.96 75.20 46.58 23.0 Not Reported 8.28 E 9.17 NE 10.74 E No 0.000 No Precipitation 05/10/2022 07:42 PM 05/10/2022 07:47 PM 0.000 0.000 0.000 0.000 0.000 Not Reported Not Reported
05/24/2022 11:25 AM 66.20 47.66 23.54 75.20 46.58 19.0 Not Reported 8.05 E 11.18 E 11.18 E No 0.000 No Precipitation 05/10/2022 07:42 PM 05/10/2022 07:47 PM 0.000 0.000 0.000 0.000 0.000 Not Reported Not Reported
05/24/2022 11:30 AM 64.94 47.12 23.54 75.20 46.58 20.0 Not Reported 10.07 E 8.95 SE 13.42 E No 0.000 No Precipitation 05/10/2022 07:42 PM 05/10/2022 07:47 PM 0.000 0.000 0.000 0.000 0.000 Not Reported Not Reported
05/24/2022 11:35 AM 66.20 48.02 25.16 75.20 46.58 20.0 Not Reported 5.82 NE 6.04 E 13.42 E No 0.000 No Precipitation 05/10/2022 07:42 PM 05/10/2022 07:47 PM 0.000 0.000 0.000 0.000 0.000 Not Reported Not Reported
05/24/2022 11:40 AM 65.48 47.12 23.00 75.20 46.58 19.0 Not Reported 7.83 E 6.49 E 12.08 E No 0.000 No Precipitation 05/10/2022 07:42 PM 05/10/2022 07:47 PM 0.000 0.000 0.000 0.000 0.000 Not Reported Not Reported
05/24/2022 11:45 AM 66.74 47.30 21.02 75.20 46.58 17.0 Not Reported 4.92 E 10.07 E 12.08 E No 0.000 No Precipitation 05/10/2022 07:42 PM 05/10/2022 07:47 PM 0.000 0.000 0.000 0.000 0.000 Not Reported Not Reported
05/24/2022 11:50 AM 66.74 47.30 21.02 75.20 46.58 17.0 Not Reported 6.04 E 8.95 E 10.07 E No 0.000 No Precipitation 05/10/2022 07:42 PM 05/10/2022 07:47 PM 0.000 0.000 0.000 0.000 0.000 Not Reported Not Reported
05/24/2022 11:55 AM 66.74 47.48 21.56 75.20 46.58 17.0 Not Reported 4.47 E 10.51 E 10.51 E No 0.000 No Precipitation 05/10/2022 07:42 PM 05/10/2022 07:47 PM 0.000 0.000 0.000 0.000 0.000 Not Reported Not Reported
05/24/2022 12:00 PM 67.28 47.84 21.92 75.20 46.58 17.0 Not Reported 6.04 E 6.71 E 11.41 E No 0.000 No Precipitation 05/10/2022 07:42 PM 05/10/2022 07:47 PM 0.000 0.000 0.000 0.000 0.000 Not Reported Not Reported
05/24/2022 12:05 PM 68.90 48.56 22.28 75.20 46.58 16.0 Not Reported 5.37 E 10.51 E 11.41 E No 0.000 No Precipitation 05/10/2022 07:42 PM 05/10/2022 07:47 PM 0.000 0.000 0.000 0.000 0.000 Not Reported Not Reported
05/24/2022 12:10 PM 68.90 48.56 21.92 75.20 46.58 16.0 Not Reported 4.25 E 8.95 E 10.51 E No 0.000 No Precipitation 05/10/2022 07:42 PM 05/10/2022 07:47 PM 0.000 0.000 0.000 0.000 0.000 Not Reported Not Reported
05/24/2022 12:15 PM 69.08 48.74 23.00 75.20 46.58 17.0 Not Reported 5.82 E 4.70 E 10.29 E No 0.000 No Precipitation 05/10/2022 07:42 PM 05/10/2022 07:47 PM 0.000 0.000 0.000 0.000 0.000 Not Reported Not Reported
05/24/2022 12:20 PM 68.18 48.38 22.28 75.20 46.58 17.0 Not Reported 9.84 E 10.96 NE 13.20 E No 0.000 No Precipitation 05/10/2022 07:42 PM 05/10/2022 07:47 PM 0.000 0.000 0.000 0.000 0.000 Not Reported Not Reported
05/24/2022 12:25 PM 68.54 48.38 22.28 75.20 46.58 17.0 Not Reported 8.95 E 8.50 E 13.20 E No 0.000 No Precipitation 05/10/2022 07:42 PM 05/10/2022 07:47 PM 0.000 0.000 0.000 0.000 0.000 Not Reported Not Reported
05/24/2022 12:35 PM 69.44 47.84 16.52 75.20 46.58 12.0 Not Reported 5.14 E 6.26 SE 8.95 E No 0.000 No Precipitation 05/10/2022 07:42 PM 05/10/2022 07:47 PM 0.000 0.000 0.000 0.000 0.000 Not Reported Not Reported
05/24/2022 12:40 PM 70.52 48.74 18.86 75.20 46.58 13.0 Not Reported 5.82 E 0.22 S 10.96 E No 0.000 No Precipitation 05/10/2022 07:42 PM 05/10/2022 07:47 PM 0.000 0.000 0.000 0.000 0.000 Not Reported Not Reported
05/24/2022 12:45 PM 70.34 48.20 16.34 75.20 46.58 12.0 Not Reported 5.82 E 3.58 SE 10.96 E No 0.000 No Precipitation 05/10/2022 07:42 PM 05/10/2022 07:47 PM 0.000 0.000 0.000 0.000 0.000 Not Reported Not Reported
05/24/2022 12:50 PM 71.24 48.92 18.68 75.20 46.58 13.0 Not Reported 5.82 E 2.68 NE 8.05 E No 0.000 No Precipitation 05/10/2022 07:42 PM 05/10/2022 07:47 PM 0.000 0.000 0.000 0.000 0.000 Not Reported Not Reported
05/24/2022 12:55 PM 71.06 48.74 18.32 75.20 46.58 13.0 Not Reported 4.92 E 8.72 E 8.72 E No 0.000 No Precipitation 05/10/2022 07:42 PM 05/10/2022 07:47 PM 0.000 0.000 0.000 0.000 0.000 Not Reported Not Reported
05/24/2022 01:00 PM 71.24 49.82 22.64 75.20 46.58 15.0 Not Reported 5.82 E 2.68 E 10.51 E No 0.000 No Precipitation 05/10/2022 07:42 PM 05/10/2022 07:47 PM 0.000 0.000 0.000 0.000 0.000 Not Reported Not Reported
05/24/2022 01:05 PM 70.70 48.92 19.76 75.20 46.58 14.0 Not Reported 2.24 E 6.49 E 10.96 E No 0.000 No Precipitation 05/10/2022 07:42 PM 05/10/2022 07:47 PM 0.000 0.000 0.000 0.000 0.000 Not Reported Not Reported
05/24/2022 01:10 PM 71.06 49.10 19.40 75.20 46.58 13.0 Not Reported 6.93 E 11.18 E 11.18 E No 0.000 No Precipitation 05/10/2022 07:42 PM 05/10/2022 07:47 PM 0.000 0.000 0.000 0.000 0.000 Not Reported Not Reported
05/24/2022 01:15 PM 70.52 48.92 19.76 75.20 46.58 14.0 Not Reported 4.70 E 6.71 NE 11.18 E No 0.000 No Precipitation 05/10/2022 07:42 PM 05/10/2022 07:47 PM 0.000 0.000 0.000 0.000 0.000 Not Reported Not Reported
05/24/2022 01:20 PM 71.06 49.46 21.74 75.20 46.58 15.0 Not Reported 5.14 SE 9.40 E 12.30 E No 0.000 No Precipitation 05/10/2022 07:42 PM 05/10/2022 07:47 PM 0.000 0.000 0.000 0.000 0.000 Not Reported Not Reported
05/24/2022 01:25 PM 71.06 49.28 20.66 75.20 46.58 14.0 Not Reported 4.47 SE 8.95 E 12.30 E No 0.000 No Precipitation 05/10/2022 07:42 PM 05/10/2022 07:47 PM 0.000 0.000 0.000 0.000 0.000 Not Reported Not Reported
05/24/2022 01:30 PM 71.24 49.46 21.56 75.20 46.58 15.0 Not Reported 8.05 E 8.05 NE 9.62 E No 0.000 No Precipitation 05/10/2022 07:42 PM 05/10/2022 07:47 PM 0.000 0.000 0.000 0.000 0.000 Not Reported Not Reported
05/24/2022 01:35 PM 70.16 49.28 22.28 75.20 46.58 16.0 Not Reported 8.72 E 7.16 E 10.29 E No 0.000 No Precipitation 05/10/2022 07:42 PM 05/10/2022 07:47 PM 0.000 0.000 0.000 0.000 0.000 Not Reported Not Reported
05/24/2022 01:40 PM 70.88 49.46 22.28 75.20 46.58 15.0 Not Reported 5.14 E 12.08 SE 13.20 E No 0.000 No Precipitation 05/10/2022 07:42 PM 05/10/2022 07:47 PM 0.000 0.000 0.000 0.000 0.000 Not Reported Not Reported
05/24/2022 01:45 PM 71.24 49.64 22.10 75.20 46.58 15.0 Not Reported 4.92 E 5.59 E 13.20 E No 0.000 No Precipitation 05/10/2022 07:42 PM 05/10/2022 07:47 PM 0.000 0.000 0.000 0.000 0.000 Not Reported Not Reported
05/24/2022 01:50 PM 71.24 50.00 23.90 75.20 46.58 16.0 Not Reported 10.07 E 8.95 SE 13.42 E No 0.000 No Precipitation 05/10/2022 07:42 PM 05/10/2022 07:47 PM 0.000 0.000 0.000 0.000 0.000 Not Reported Not Reported
05/24/2022 01:55 PM 72.86 50.90 24.62 75.20 46.58 16.0 Not Reported 6.04 E 5.82 E 13.42 E No 0.000 No Precipitation 05/10/2022 07:42 PM 05/10/2022 07:47 PM 0.000 0.000 0.000 0.000 0.000 Not Reported Not Reported
05/24/2022 02:00 PM 71.24 49.64 21.56 75.20 46.58 15.0 Not Reported 9.40 E 5.59 E 11.86 E No 0.000 No Precipitation 05/10/2022 07:42 PM 05/10/2022 07:47 PM 0.000 0.000 0.000 0.000 0.000 Not Reported Not Reported
05/24/2022 02:05 PM 72.68 50.90 24.44 75.20 46.58 16.0 Not Reported 5.82 E 6.26 E 11.41 NE No 0.000 No Precipitation 05/10/2022 07:42 PM 05/10/2022 07:47 PM 0.000 0.000 0.000 0.000 0.000 Not Reported Not Reported
05/24/2022 02:10 PM 72.32 50.36 22.64 75.20 46.58 15.0 Not Reported 7.61 E 6.93 E 8.50 E No 0.000 No Precipitation 05/10/2022 07:42 PM 05/10/2022 07:47 PM 0.000 0.000 0.000 0.000 0.000 Not Reported Not Reported
05/24/2022 02:15 PM 71.78 50.00 22.64 75.20 46.58 15.0 Not Reported 7.83 E 12.97 NE 12.97 NE No 0.000 No Precipitation 05/10/2022 07:42 PM 05/10/2022 07:47 PM 0.000 0.000 0.000 0.000 0.000 Not Reported Not Reported
05/24/2022 02:20 PM 72.68 50.54 23.54 75.20 46.58 15.0 Not Reported 8.72 E 5.14 E 12.97 NE No 0.000 No Precipitation 05/10/2022 07:42 PM 05/10/2022 07:47 PM 0.000 0.000 0.000 0.000 0.000 Not Reported Not Reported
05/24/2022 02:25 PM 73.04 50.54 22.46 75.20 46.58 14.0 Not Reported 7.38 E 9.84 E 9.84 E No 0.000 No Precipitation 05/10/2022 07:42 PM 05/10/2022 07:47 PM 0.000 0.000 0.000 0.000 0.000 Not Reported Not Reported
05/24/2022 02:30 PM 72.32 50.18 21.74 75.20 46.58 14.0 Not Reported 10.29 E 10.07 E 12.75 E No 0.000 No Precipitation 05/10/2022 07:42 PM 05/10/2022 07:47 PM 0.000 0.000 0.000 0.000 0.000 Not Reported Not Reported
05/24/2022 02:35 PM 73.58 51.26 24.26 75.20 46.58 15.0 Not Reported 7.61 E 10.29 E 12.75 E No 0.000 No Precipitation 05/10/2022 07:42 PM 05/10/2022 07:47 PM 0.000 0.000 0.000 0.000 0.000 Not Reported Not Reported
05/24/2022 02:40 PM 72.50 50.54 23.18 75.20 46.58 15.0 Not Reported 6.93 E 8.05 SE 12.08 E No 0.000 No Precipitation 05/10/2022 07:42 PM 05/10/2022 07:47 PM 0.000 0.000 0.000 0.000 0.000 Not Reported Not Reported
05/24/2022 02:45 PM 72.86 50.72 23.18 75.20 46.58 15.0 Not Reported 8.95 E 10.07 E 12.08 E No 0.000 No Precipitation 05/10/2022 07:42 PM 05/10/2022 07:47 PM 0.000 0.000 0.000 0.000 0.000 Not Reported Not Reported
05/24/2022 02:50 PM 73.22 51.08 24.44 75.20 46.58 15.0 Not Reported 8.95 E 5.37 NE 12.08 E No 0.000 No Precipitation 05/10/2022 07:42 PM 05/10/2022 07:47 PM 0.000 0.000 0.000 0.000 0.000 Not Reported Not Reported
05/24/2022 02:55 PM 72.50 50.36 22.64 75.20 46.58 15.0 Not Reported 9.17 E 8.50 NE 11.18 E No 0.000 No Precipitation 05/10/2022 07:42 PM 05/10/2022 07:47 PM 0.000 0.000 0.000 0.000 0.000 Not Reported Not Reported
05/24/2022 03:00 PM 73.22 51.08 24.26 75.20 46.58 15.0 Not Reported 6.71 E 11.18 E 11.18 E No 0.000 No Precipitation 05/10/2022 07:42 PM 05/10/2022 07:47 PM 0.000 0.000 0.000 0.000 0.000 Not Reported Not Reported
05/24/2022 03:05 PM 72.86 50.72 23.90 75.20 46.58 15.0 Not Reported 10.07 E 6.26 E 13.65 E No 0.000 No Precipitation 05/10/2022 07:42 PM 05/10/2022 07:47 PM 0.000 0.000 0.000 0.000 0.000 Not Reported Not Reported
05/24/2022 03:10 PM 72.32 50.36 23.18 75.20 46.58 15.0 Not Reported 9.17 E 5.82 E 13.65 E No 0.000 No Precipitation 05/10/2022 07:42 PM 05/10/2022 07:47 PM 0.000 0.000 0.000 0.000 0.000 Not Reported Not Reported
05/24/2022 03:15 PM 72.86 50.54 23.00 75.20 46.58 15.0 Not Reported 6.26 SE 3.36 E 12.75 NE No 0.000 No Precipitation 05/10/2022 07:42 PM 05/10/2022 07:47 PM 0.000 0.000 0.000 0.000 0.000 Not Reported Not Reported
05/24/2022 03:20 PM 73.22 50.72 23.00 75.20 46.58 15.0 Not Reported 5.37 E 8.95 E 10.07 E No 0.000 No Precipitation 05/10/2022 07:42 PM 05/10/2022 07:47 PM 0.000 0.000 0.000 0.000 0.000 Not Reported Not Reported
05/24/2022 03:25 PM 73.22 51.08 24.62 75.20 46.58 16.0 Not Reported 6.49 E 8.05 NE 10.07 E No 0.000 No Precipitation 05/10/2022 07:42 PM 05/10/2022 07:47 PM 0.000 0.000 0.000 0.000 0.000 Not Reported Not Reported
05/24/2022 03:30 PM 73.58 50.90 22.64 75.20 46.58 14.0 Not Reported 6.71 E 7.83 E 10.29 NE No 0.000 No Precipitation 05/10/2022 07:42 PM 05/10/2022 07:47 PM 0.000 0.000 0.000 0.000 0.000 Not Reported Not Reported
05/24/2022 03:35 PM 73.58 50.90 23.36 75.20 46.58 15.0 Not Reported 6.71 E 9.40 E 10.29 NE No 0.000 No Precipitation 05/10/2022 07:42 PM 05/10/2022 07:47 PM 0.000 0.000 0.000 0.000 0.000 Not Reported Not Reported
05/24/2022 03:40 PM 72.86 50.36 22.28 75.20 46.58 14.0 Not Reported 7.83 E 8.50 E 10.29 E No 0.000 No Precipitation 05/10/2022 07:42 PM 05/10/2022 07:47 PM 0.000 0.000 0.000 0.000 0.000 Not Reported Not Reported
05/24/2022 03:45 PM 73.76 50.90 22.64 75.20 46.58 14.0 Not Reported 7.38 E 7.16 E 10.07 E No 0.000 No Precipitation 05/10/2022 07:42 PM 05/10/2022 07:47 PM 0.000 0.000 0.000 0.000 0.000 Not Reported Not Reported
05/24/2022 03:50 PM 73.22 51.08 24.62 75.20 46.58 16.0 Not Reported 8.50 E 5.59 E 10.29 E No 0.000 No Precipitation 05/10/2022 07:42 PM 05/10/2022 07:47 PM 0.000 0.000 0.000 0.000 0.000 Not Reported Not Reported
05/24/2022 03:55 PM 73.40 50.90 23.54 75.20 46.58 15.0 Not Reported 9.17 E 4.70 E 10.51 E No 0.000 No Precipitation 05/10/2022 07:42 PM 05/10/2022 07:47 PM 0.000 0.000 0.000 0.000 0.000 Not Reported Not Reported
05/24/2022 04:00 PM 73.94 50.90 22.64 75.20 46.58 14.0 Not Reported 7.16 E 3.36 S 10.51 E No 0.000 No Precipitation 05/10/2022 07:42 PM 05/10/2022 07:47 PM 0.000 0.000 0.000 0.000 0.000 Not Reported Not Reported
05/24/2022 04:05 PM 73.58 51.08 23.36 75.20 46.58 15.0 Not Reported 7.61 E 5.59 NE 10.07 E No 0.000 No Precipitation 05/10/2022 07:42 PM 05/10/2022 07:47 PM 0.000 0.000 0.000 0.000 0.000 Not Reported Not Reported
05/24/2022 04:10 PM 73.94 51.08 23.36 75.20 46.58 14.0 Not Reported 7.16 E 8.05 E 11.41 E No 0.000 No Precipitation 05/10/2022 07:42 PM 05/10/2022 07:47 PM 0.000 0.000 0.000 0.000 0.000 Not Reported Not Reported
05/24/2022 04:15 PM 74.66 51.62 23.00 75.20 46.58 14.0 Not Reported 6.04 E 5.82 SE 11.63 E No 0.000 No Precipitation 05/10/2022 07:42 PM 05/10/2022 07:47 PM 0.000 0.000 0.000 0.000 0.000 Not Reported Not Reported
05/24/2022 04:20 PM 74.66 51.44 23.18 75.20 46.58 14.0 Not Reported 5.59 E 5.14 SE 11.63 E No 0.000 No Precipitation 05/10/2022 07:42 PM 05/10/2022 07:47 PM 0.000 0.000 0.000 0.000 0.000 Not Reported Not Reported
05/24/2022 04:25 PM 75.02 51.62 23.18 75.56 46.58 14.0 Not Reported 6.71 E 5.37 E 7.38 NE No 0.000 No Precipitation 05/10/2022 07:42 PM 05/10/2022 07:47 PM 0.000 0.000 0.000 0.000 0.000 Not Reported Not Reported
05/24/2022 04:30 PM 75.20 51.80 23.36 75.56 46.58 14.0 Not Reported 5.59 E 5.14 E 8.28 SE No 0.000 No Precipitation 05/10/2022 07:42 PM 05/10/2022 07:47 PM 0.000 0.000 0.000 0.000 0.000 Not Reported Not Reported
05/24/2022 04:35 PM 74.84 51.62 23.36 75.56 46.58 14.0 Not Reported 7.16 E 4.47 E 8.72 E No 0.000 No Precipitation 05/10/2022 07:42 PM 05/10/2022 07:47 PM 0.000 0.000 0.000 0.000 0.000 Not Reported Not Reported
05/24/2022 04:40 PM 75.38 51.98 24.62 75.56 46.58 14.0 Not Reported 4.25 E 5.14 NE 8.72 E No 0.000 No Precipitation 05/10/2022 07:42 PM 05/10/2022 07:47 PM 0.000 0.000 0.000 0.000 0.000 Not Reported Not Reported
05/24/2022 04:45 PM 77.00 53.06 25.70 77.00 46.58 14.0 Not Reported 1.57 E 1.57 E 7.61 E No 0.000 No Precipitation 05/10/2022 07:42 PM 05/10/2022 07:47 PM 0.000 0.000 0.000 0.000 0.000 Not Reported Not Reported
05/24/2022 04:50 PM 75.38 51.80 23.90 77.00 46.58 14.0 Not Reported 7.83 E 5.59 E 9.84 E No 0.000 No Precipitation 05/10/2022 07:42 PM 05/10/2022 07:47 PM 0.000 0.000 0.000 0.000 0.000 Not Reported Not Reported
05/24/2022 04:55 PM 75.56 52.16 24.80 77.00 46.58 15.0 Not Reported 5.82 E 5.59 E 9.84 E No 0.000 No Precipitation 05/10/2022 07:42 PM 05/10/2022 07:47 PM 0.000 0.000 0.000 0.000 0.000 Not Reported Not Reported
05/24/2022 05:00 PM 75.38 51.80 23.72 77.00 46.58 14.0 Not Reported 5.59 E 6.26 E 11.86 NE No 0.000 No Precipitation 05/10/2022 07:42 PM 05/10/2022 07:47 PM 0.000 0.000 0.000 0.000 0.000 Not Reported Not Reported
05/24/2022 05:05 PM 75.92 52.52 25.70 77.00 46.58 15.0 Not Reported 2.91 E 3.58 NE 11.86 NE No 0.000 No Precipitation 05/10/2022 07:42 PM 05/10/2022 07:47 PM 0.000 0.000 0.000 0.000 0.000 Not Reported Not Reported
05/24/2022 05:10 PM 77.54 53.06 25.16 77.54 46.58 14.0 Not Reported 1.34 E 2.68 S 4.92 E No 0.000 No Precipitation 05/10/2022 07:42 PM 05/10/2022 07:47 PM 0.000 0.000 0.000 0.000 0.000 Not Reported Not Reported
05/24/2022 05:15 PM 76.46 52.34 24.08 78.26 46.58 14.0 Not Reported 5.59 SE 7.38 E 7.38 E No 0.000 No Precipitation 05/10/2022 07:42 PM 05/10/2022 07:47 PM 0.000 0.000 0.000 0.000 0.000 Not Reported Not Reported
05/24/2022 05:20 PM 76.28 52.52 25.16 78.26 46.58 14.0 Not Reported 0.67 S 3.36 E 7.38 E No 0.000 No Precipitation 05/10/2022 07:42 PM 05/10/2022 07:47 PM 0.000 0.000 0.000 0.000 0.000 Not Reported Not Reported
05/24/2022 05:25 PM 76.10 52.52 25.70 78.26 46.58 15.0 Not Reported 3.80 NE 2.68 E 4.70 SE No 0.000 No Precipitation 05/10/2022 07:42 PM 05/10/2022 07:47 PM 0.000 0.000 0.000 0.000 0.000 Not Reported Not Reported
05/24/2022 05:30 PM 77.54 53.42 26.42 78.26 46.58 14.0 Not Reported 2.46 SE 4.92 E 4.92 E No 0.000 No Precipitation 05/10/2022 07:42 PM 05/10/2022 07:47 PM 0.000 0.000 0.000 0.000 0.000 Not Reported Not Reported
05/24/2022 05:35 PM 75.92 52.52 25.52 78.26 46.58 15.0 Not Reported 3.13 SE 3.58 E 4.92 E No 0.000 No Precipitation 05/10/2022 07:42 PM 05/10/2022 07:47 PM 0.000 0.000 0.000 0.000 0.000 Not Reported Not Reported
05/24/2022 05:40 PM 76.64 52.52 24.62 78.26 46.58 14.0 Not Reported 4.47 E 3.80 SE 8.50 E No 0.000 No Precipitation 05/10/2022 07:42 PM 05/10/2022 07:47 PM 0.000 0.000 0.000 0.000 0.000 Not Reported Not Reported
05/24/2022 05:45 PM 76.10 52.52 24.98 78.26 46.58 14.0 Not Reported 5.37 E 3.80 NE 8.50 E No 0.000 No Precipitation 05/10/2022 07:42 PM 05/10/2022 07:47 PM 0.000 0.000 0.000 0.000 0.000 Not Reported Not Reported
05/24/2022 05:50 PM 75.92 52.34 25.34 78.26 46.58 15.0 Not Reported 2.91 E 4.03 SE 7.16 E No 0.000 No Precipitation 05/10/2022 07:42 PM 05/10/2022 07:47 PM 0.000 0.000 0.000 0.000 0.000 Not Reported Not Reported
05/24/2022 05:55 PM 75.92 52.70 26.60 78.26 46.58 15.0 Not Reported 4.92 E 4.47 NE 5.59 E No 0.000 No Precipitation 05/10/2022 07:42 PM 05/10/2022 07:47 PM 0.000 0.000 0.000 0.000 0.000 Not Reported Not Reported
05/24/2022 06:00 PM 75.74 53.06 28.22 78.26 46.58 17.0 Not Reported 3.58 E 2.91 NE 5.59 E No 0.000 No Precipitation 05/10/2022 07:42 PM 05/10/2022 07:47 PM 0.000 0.000 0.000 0.000 0.000 Not Reported Not Reported
05/24/2022 06:05 PM 77.18 53.96 29.48 78.26 46.58 17.0 Not Reported 1.57 NE 0.45 NE 5.37 E No 0.000 No Precipitation 05/10/2022 07:42 PM 05/10/2022 07:47 PM 0.000 0.000 0.000 0.000 0.000 Not Reported Not Reported
05/24/2022 06:10 PM 77.72 53.96 28.40 78.26 46.58 16.0 Not Reported 0.22 NE 0.89 N 2.46 E No 0.000 No Precipitation 05/10/2022 07:42 PM 05/10/2022 07:47 PM 0.000 0.000 0.000 0.000 0.000 Not Reported Not Reported
05/24/2022 06:15 PM 77.00 53.24 27.14 78.26 46.58 15.0 Not Reported 0.45 E 0.45 N 2.68 E No 0.000 No Precipitation 05/10/2022 07:42 PM 05/10/2022 07:47 PM 0.000 0.000 0.000 0.000 0.000 Not Reported Not Reported
05/24/2022 06:20 PM 76.28 53.78 30.20 78.26 46.58 18.0 Not Reported 2.01 N 1.57 NE 3.36 SE No 0.000 No Precipitation 05/10/2022 07:42 PM 05/10/2022 07:47 PM 0.000 0.000 0.000 0.000 0.000 Not Reported Not Reported
05/24/2022 06:25 PM 76.46 52.88 26.42 78.26 46.58 15.0 Not Reported 3.36 NE 0.89 SE 3.80 E No 0.000 No Precipitation 05/10/2022 07:42 PM 05/10/2022 07:47 PM 0.000 0.000 0.000 0.000 0.000 Not Reported Not Reported
05/24/2022 06:30 PM 76.64 53.24 27.86 78.26 46.58 16.0 Not Reported 1.57 E 2.46 E 3.80 E No 0.000 No Precipitation 05/10/2022 07:42 PM 05/10/2022 07:47 PM 0.000 0.000 0.000 0.000 0.000 Not Reported Not Reported
05/24/2022 06:35 PM 76.10 53.60 29.84 78.26 46.58 18.0 Not Reported 1.79 E 0.89 NE 5.14 E No 0.000 No Precipitation 05/10/2022 07:42 PM 05/10/2022 07:47 PM 0.000 0.000 0.000 0.000 0.000 Not Reported Not Reported
05/24/2022 06:40 PM 76.64 54.14 30.74 78.26 46.58 18.0 Not Reported 0.22 N 2.68 E 5.14 E No 0.000 No Precipitation 05/10/2022 07:42 PM 05/10/2022 07:47 PM 0.000 0.000 0.000 0.000 0.000 Not Reported Not Reported
05/24/2022 06:45 PM 75.74 53.42 30.02 78.26 46.58 18.0 Not Reported 1.34 NE 1.57 E 4.25 N No 0.000 No Precipitation 05/10/2022 07:42 PM 05/10/2022 07:47 PM 0.000 0.000 0.000 0.000 0.000 Not Reported Not Reported
05/24/2022 06:50 PM 76.46 53.78 29.84 78.26 46.58 17.0 Not Reported 0.45 E 0.22 NE 4.25 N No 0.000 No Precipitation 05/10/2022 07:42 PM 05/10/2022 07:47 PM 0.000 0.000 0.000 0.000 0.000 Not Reported Not Reported
05/24/2022 06:55 PM 75.92 53.42 29.66 78.26 46.58 18.0 Not Reported 1.12 NE 0.67 NE 1.79 NE No 0.000 No Precipitation 05/10/2022 07:42 PM 05/10/2022 07:47 PM 0.000 0.000 0.000 0.000 0.000 Not Reported Not Reported
05/24/2022 07:00 PM 75.92 53.96 31.46 78.26 46.58 19.0 Not Reported 0.45 NE 0.00 SW 1.79 E No 0.000 No Precipitation 05/10/2022 07:42 PM 05/10/2022 07:47 PM 0.000 0.000 0.000 0.000 0.000 Not Reported Not Reported
05/24/2022 07:05 PM 75.74 54.50 33.44 78.26 46.58 21.0 Not Reported 0.00 NW 0.00 NW 1.12 N No 0.000 No Precipitation 05/10/2022 07:42 PM 05/10/2022 07:47 PM 0.000 0.000 0.000 0.000 0.000 Not Reported Not Reported
05/24/2022 07:10 PM 75.02 55.04 36.32 78.26 46.58 24.0 Not Reported 0.00 NE 0.00 W 0.45 NE No 0.000 No Precipitation 05/10/2022 07:42 PM 05/10/2022 07:47 PM 0.000 0.000 0.000 0.000 0.000 Not Reported Not Reported
05/24/2022 07:15 PM 74.30 54.68 36.14 78.26 46.58 24.0 Not Reported 0.00 N 0.00 NE 0.67 E No 0.000 No Precipitation 05/10/2022 07:42 PM 05/10/2022 07:47 PM 0.000 0.000 0.000 0.000 0.000 Not Reported Not Reported
05/24/2022 07:20 PM 73.76 54.68 36.68 78.26 46.58 25.0 Not Reported 0.00 W 0.45 NW 0.67 E No 0.000 No Precipitation 05/10/2022 07:42 PM 05/10/2022 07:47 PM 0.000 0.000 0.000 0.000 0.000 Not Reported Not Reported
05/24/2022 07:25 PM 72.68 54.14 36.50 78.26 46.58 26.0 Not Reported 0.22 NW 0.67 NW 0.89 NW No 0.000 No Precipitation 05/10/2022 07:42 PM 05/10/2022 07:47 PM 0.000 0.000 0.000 0.000 0.000 Not Reported Not Reported
05/24/2022 07:30 PM 70.52 53.24 36.50 78.26 46.58 28.0 Not Reported 0.45 NW 0.45 W 0.89 NW No 0.000 No Precipitation 05/10/2022 07:42 PM 05/10/2022 07:47 PM 0.000 0.000 0.000 0.000 0.000 Not Reported Not Reported
05/24/2022 07:35 PM 68.90 52.52 36.50 78.26 46.58 30.0 Not Reported 0.45 W 0.89 NW 0.89 NW No 0.000 No Precipitation 05/10/2022 07:42 PM 05/10/2022 07:47 PM 0.000 0.000 0.000 0.000 0.000 Not Reported Not Reported
05/24/2022 07:40 PM 68.18 52.34 37.04 78.26 46.58 31.0 Not Reported 1.12 NW 1.34 NW 1.34 NW No 0.000 No Precipitation 05/10/2022 07:42 PM 05/10/2022 07:47 PM 0.000 0.000 0.000 0.000 0.000 Not Reported Not Reported
05/24/2022 07:45 PM 67.10 51.80 37.04 78.26 46.58 33.0 Not Reported 1.34 NW 1.34 NW 1.57 NW No 0.000 No Precipitation 05/10/2022 07:42 PM 05/10/2022 07:47 PM 0.000 0.000 0.000 0.000 0.000 Not Reported Not Reported
05/24/2022 07:50 PM 66.20 51.44 37.04 78.26 46.58 34.0 Not Reported 0.89 NW 0.00 NW 1.57 NW No 0.000 No Precipitation 05/10/2022 07:42 PM 05/10/2022 07:47 PM 0.000 0.000 0.000 0.000 0.000 Not Reported Not Reported
05/24/2022 07:55 PM 65.84 51.08 36.32 78.26 46.58 33.0 Not Reported 0.45 NW 0.00 NW 1.57 NW No 0.000 No Precipitation 05/10/2022 07:42 PM 05/10/2022 07:47 PM 0.000 0.000 0.000 0.000 0.000 Not Reported Not Reported
05/24/2022 08:00 PM 65.30 50.72 36.14 78.26 46.58 33.0 Not Reported 0.00 NW 0.00 NW 0.67 NW No 0.000 No Precipitation 05/10/2022 07:42 PM 05/10/2022 07:47 PM 0.000 0.000 0.000 0.000 0.000 Not Reported Not Reported
05/24/2022 08:05 PM 64.58 50.00 34.70 78.26 46.58 32.0 Not Reported 1.34 NW 0.45 W 1.79 W No 0.000 No Precipitation 05/10/2022 07:42 PM 05/10/2022 07:47 PM 0.000 0.000 0.000 0.000 0.000 Not Reported Not Reported
05/24/2022 08:10 PM 64.22 50.18 35.96 78.26 46.58 34.0 Not Reported 1.12 W 1.12 NW 1.79 W No 0.000 No Precipitation 05/10/2022 07:42 PM 05/10/2022 07:47 PM 0.000 0.000 0.000 0.000 0.000 Not Reported Not Reported
05/24/2022 08:15 PM 63.32 49.64 35.60 78.26 46.58 35.0 Not Reported 1.12 NW 1.34 NW 1.57 NW No 0.000 No Precipitation 05/10/2022 07:42 PM 05/10/2022 07:47 PM 0.000 0.000 0.000 0.000 0.000 Not Reported Not Reported
05/24/2022 08:20 PM 62.78 49.64 35.96 78.26 46.58 36.0 Not Reported 1.34 NW 1.12 NW 1.57 NW No 0.000 No Precipitation 05/10/2022 07:42 PM 05/10/2022 07:47 PM 0.000 0.000 0.000 0.000 0.000 Not Reported Not Reported
05/24/2022 08:25 PM 62.42 49.10 35.06 78.26 46.58 35.0 Not Reported 1.12 W 1.79 NW 1.79 NW No 0.000 No Precipitation 05/10/2022 07:42 PM 05/10/2022 07:47 PM 0.000 0.000 0.000 0.000 0.000 Not Reported Not Reported
05/24/2022 08:30 PM 62.42 49.28 35.42 78.26 46.58 36.0 Not Reported 1.12 W 0.89 W 1.79 NW No 0.000 No Precipitation 05/10/2022 07:42 PM 05/10/2022 07:47 PM 0.000 0.000 0.000 0.000 0.000 Not Reported Not Reported
05/24/2022 08:35 PM 61.88 48.92 35.24 78.26 46.58 36.0 Not Reported 0.89 W 0.67 W 1.34 W No 0.000 No Precipitation 05/10/2022 07:42 PM 05/10/2022 07:47 PM 0.000 0.000 0.000 0.000 0.000 Not Reported Not Reported
05/24/2022 08:40 PM 61.34 48.56 34.70 78.26 46.58 36.0 Not Reported 1.34 W 1.57 NW 1.57 W No 0.000 No Precipitation 05/10/2022 07:42 PM 05/10/2022 07:47 PM 0.000 0.000 0.000 0.000 0.000 Not Reported Not Reported
05/24/2022 08:45 PM 61.16 48.20 33.80 78.26 46.58 35.0 Not Reported 0.22 W 1.12 NW 1.79 NW No 0.000 No Precipitation 05/10/2022 07:42 PM 05/10/2022 07:47 PM 0.000 0.000 0.000 0.000 0.000 Not Reported Not Reported
05/24/2022 08:50 PM 60.98 48.20 34.16 78.26 46.58 36.0 Not Reported 1.57 NW 0.89 W 1.79 NW No 0.000 No Precipitation 05/10/2022 07:42 PM 05/10/2022 07:47 PM 0.000 0.000 0.000 0.000 0.000 Not Reported Not Reported
05/24/2022 08:55 PM 61.16 48.38 34.52 78.26 46.58 36.0 Not Reported 0.22 W 0.00 NW 1.79 NW No 0.000 No Precipitation 05/10/2022 07:42 PM 05/10/2022 07:47 PM 0.000 0.000 0.000 0.000 0.000 Not Reported Not Reported
05/24/2022 09:00 PM 61.70 48.38 34.16 78.26 46.58 35.0 Not Reported 0.45 W 1.57 NW 2.24 NW No 0.000 No Precipitation 05/10/2022 07:42 PM 05/10/2022 07:47 PM 0.000 0.000 0.000 0.000 0.000 Not Reported Not Reported
05/24/2022 09:05 PM 61.34 48.20 33.62 78.26 46.58 35.0 Not Reported 0.45 NW 0.00 NW 2.24 NW No 0.000 No Precipitation 05/10/2022 07:42 PM 05/10/2022 07:47 PM 0.000 0.000 0.000 0.000 0.000 Not Reported Not Reported
05/24/2022 09:10 PM 61.16 48.38 34.52 78.26 46.58 36.0 Not Reported 0.89 W 1.34 NW 1.34 NW No 0.000 No Precipitation 05/10/2022 07:42 PM 05/10/2022 07:47 PM 0.000 0.000 0.000 0.000 0.000 Not Reported Not Reported
05/24/2022 09:15 PM 61.34 48.56 34.88 78.26 46.58 37.0 Not Reported 0.00 N 0.00 W 1.34 NW No 0.000 No Precipitation 05/10/2022 07:42 PM 05/10/2022 07:47 PM 0.000 0.000 0.000 0.000 0.000 Not Reported Not Reported
05/24/2022 09:20 PM 61.16 48.74 35.78 78.26 46.58 38.0 Not Reported 0.00 N 0.00 NW 0.89 NW No 0.000 No Precipitation 05/10/2022 07:42 PM 05/10/2022 07:47 PM 0.000 0.000 0.000 0.000 0.000 Not Reported Not Reported
05/24/2022 09:25 PM 61.34 48.92 35.96 78.26 46.58 38.0 Not Reported 0.00 N 0.00 NE 0.67 NW No 0.000 No Precipitation 05/10/2022 07:42 PM 05/10/2022 07:47 PM 0.000 0.000 0.000 0.000 0.000 Not Reported Not Reported
05/24/2022 09:30 PM 61.16 48.74 35.96 78.26 46.58 38.0 Not Reported 0.00 NW 0.00 NW 0.89 NW No 0.000 No Precipitation 05/10/2022 07:42 PM 05/10/2022 07:47 PM 0.000 0.000 0.000 0.000 0.000 Not Reported Not Reported
05/24/2022 09:35 PM 60.98 49.10 36.86 78.26 46.58 40.0 Not Reported 0.45 NW 1.34 NW 1.34 NW No 0.000 No Precipitation 05/10/2022 07:42 PM 05/10/2022 07:47 PM 0.000 0.000 0.000 0.000 0.000 Not Reported Not Reported
05/24/2022 09:40 PM 60.62 48.92 36.68 78.26 46.58 40.0 Not Reported 0.67 NW 0.67 NW 1.34 NW No 0.000 No Precipitation 05/10/2022 07:42 PM 05/10/2022 07:47 PM 0.000 0.000 0.000 0.000 0.000 Not Reported Not Reported
05/24/2022 09:45 PM 60.80 49.10 37.04 78.26 46.58 40.0 Not Reported 0.00 NW 0.22 W 1.12 NW No 0.000 No Precipitation 05/10/2022 07:42 PM 05/10/2022 07:47 PM 0.000 0.000 0.000 0.000 0.000 Not Reported Not Reported
05/24/2022 09:50 PM 60.80 49.28 37.40 78.26 46.58 41.0 Not Reported 0.22 NW 1.57 N 2.24 NW No 0.000 No Precipitation 05/10/2022 07:42 PM 05/10/2022 07:47 PM 0.000 0.000 0.000 0.000 0.000 Not Reported Not Reported
05/24/2022 09:55 PM 60.62 49.10 37.58 78.26 46.58 42.0 Not Reported 0.45 NW 0.00 N 2.24 NW No 0.000 No Precipitation 05/10/2022 07:42 PM 05/10/2022 07:47 PM 0.000 0.000 0.000 0.000 0.000 Not Reported Not Reported
05/24/2022 10:00 PM 60.62 49.46 38.12 78.26 46.58 43.0 Not Reported 0.22 N 0.45 N 1.34 NW No 0.000 No Precipitation 05/10/2022 07:42 PM 05/10/2022 07:47 PM 0.000 0.000 0.000 0.000 0.000 Not Reported Not Reported
05/24/2022 10:05 PM 60.80 49.28 37.76 78.26 46.58 42.0 Not Reported 0.45 NE 0.67 NE 1.79 NE No 0.000 No Precipitation 05/10/2022 07:42 PM 05/10/2022 07:47 PM 0.000 0.000 0.000 0.000 0.000 Not Reported Not Reported
05/24/2022 10:10 PM 61.16 49.46 37.40 78.26 46.58 41.0 Not Reported 0.00 W 1.57 E 1.79 NE No 0.000 No Precipitation 05/10/2022 07:42 PM 05/10/2022 07:47 PM 0.000 0.000 0.000 0.000 0.000 Not Reported Not Reported
05/24/2022 10:15 PM 61.52 49.82 38.12 78.26 46.58 41.0 Not Reported 0.45 NW 0.00 NE 1.79 NE No 0.000 No Precipitation 05/10/2022 07:42 PM 05/10/2022 07:47 PM 0.000 0.000 0.000 0.000 0.000 Not Reported Not Reported
05/24/2022 10:20 PM 61.52 49.82 38.12 78.26 46.58 41.0 Not Reported 0.22 N 0.00 S 1.79 NE No 0.000 No Precipitation 05/10/2022 07:42 PM 05/10/2022 07:47 PM 0.000 0.000 0.000 0.000 0.000 Not Reported Not Reported
05/24/2022 10:25 PM 61.16 49.64 37.94 78.26 46.58 42.0 Not Reported 0.67 NW 0.00 W 1.79 N No 0.000 No Precipitation 05/10/2022 07:42 PM 05/10/2022 07:47 PM 0.000 0.000 0.000 0.000 0.000 Not Reported Not Reported
05/24/2022 10:30 PM 60.98 49.64 38.48 78.26 46.58 43.0 Not Reported 0.00 S 0.00 SE 1.79 N No 0.000 No Precipitation 05/10/2022 07:42 PM 05/10/2022 07:47 PM 0.000 0.000 0.000 0.000 0.000 Not Reported Not Reported
05/24/2022 10:35 PM 60.26 49.28 38.48 78.26 46.58 44.0 Not Reported 0.00 N 0.00 SE 0.00 S No 0.000 No Precipitation 05/10/2022 07:42 PM 05/10/2022 07:47 PM 0.000 0.000 0.000 0.000 0.000 Not Reported Not Reported
05/24/2022 10:40 PM 59.54 48.92 38.30 78.26 46.58 45.0 Not Reported 0.00 N 0.00 NE 0.00 SE No 0.000 No Precipitation 05/10/2022 07:42 PM 05/10/2022 07:47 PM 0.000 0.000 0.000 0.000 0.000 Not Reported Not Reported
05/24/2022 10:45 PM 59.36 48.92 38.48 78.26 46.58 45.0 Not Reported 0.00 NE 0.00 NE 0.67 NE No 0.000 No Precipitation 05/10/2022 07:42 PM 05/10/2022 07:47 PM 0.000 0.000 0.000 0.000 0.000 Not Reported Not Reported
05/24/2022 10:50 PM 59.00 48.74 38.48 78.26 46.58 46.0 Not Reported 0.00 N 0.00 NE 0.67 NE No 0.000 No Precipitation 05/10/2022 07:42 PM 05/10/2022 07:47 PM 0.000 0.000 0.000 0.000 0.000 Not Reported Not Reported
05/24/2022 10:55 PM 58.82 48.74 38.66 78.26 46.58 47.0 Not Reported 0.00 N 0.00 NE 0.00 NE No 0.000 No Precipitation 05/10/2022 07:42 PM 05/10/2022 07:47 PM 0.000 0.000 0.000 0.000 0.000 Not Reported Not Reported
05/24/2022 11:00 PM 58.64 48.74 38.48 78.26 46.58 47.0 Not Reported 0.00 N 0.00 NE 0.00 NE No 0.000 No Precipitation 05/10/2022 07:42 PM 05/10/2022 07:47 PM 0.000 0.000 0.000 0.000 0.000 Not Reported Not Reported
05/24/2022 11:05 PM 58.46 48.56 38.66 78.26 46.58 47.0 Not Reported 0.00 N 0.00 NE 0.00 NE No 0.000 No Precipitation 05/10/2022 07:42 PM 05/10/2022 07:47 PM 0.000 0.000 0.000 0.000 0.000 Not Reported Not Reported
05/24/2022 11:10 PM 58.46 48.56 38.66 78.26 46.58 47.0 Not Reported 0.00 N 0.00 NE 0.00 NE No 0.000 No Precipitation 05/10/2022 07:42 PM 05/10/2022 07:47 PM 0.000 0.000 0.000 0.000 0.000 Not Reported Not Reported
05/24/2022 11:15 PM 58.28 48.38 38.48 78.26 46.58 47.0 Not Reported 0.00 N 0.00 NE 0.00 NE No 0.000 No Precipitation 05/10/2022 07:42 PM 05/10/2022 07:47 PM 0.000 0.000 0.000 0.000 0.000 Not Reported Not Reported
05/24/2022 11:20 PM 58.10 48.20 38.30 78.26 46.58 47.0 Not Reported 0.00 N 0.00 E 0.00 NE No 0.000 No Precipitation 05/10/2022 07:42 PM 05/10/2022 07:47 PM 0.000 0.000 0.000 0.000 0.000 Not Reported Not Reported
05/24/2022 11:25 PM 57.92 48.20 38.30 78.26 46.58 47.0 Not Reported 0.00 N 0.00 E 0.00 NE No 0.000 No Precipitation 05/10/2022 07:42 PM 05/10/2022 07:47 PM 0.000 0.000 0.000 0.000 0.000 Not Reported Not Reported
05/24/2022 11:30 PM 57.92 48.20 38.30 78.26 46.58 47.0 Not Reported 0.00 N 0.00 E 0.00 NE No 0.000 No Precipitation 05/10/2022 07:42 PM 05/10/2022 07:47 PM 0.000 0.000 0.000 0.000 0.000 Not Reported Not Reported
05/24/2022 11:35 PM 57.74 48.02 38.30 78.26 46.58 48.0 Not Reported 0.00 N 0.00 E 0.00 NE No 0.000 No Precipitation 05/10/2022 07:42 PM 05/10/2022 07:47 PM 0.000 0.000 0.000 0.000 0.000 Not Reported Not Reported
05/24/2022 11:40 PM 57.56 48.02 38.12 78.26 46.58 48.0 Not Reported 0.00 N 0.00 E 0.00 NE No 0.000 No Precipitation 05/10/2022 07:42 PM 05/10/2022 07:47 PM 0.000 0.000 0.000 0.000 0.000 Not Reported Not Reported
05/24/2022 11:45 PM 57.20 47.84 38.12 78.26 46.58 48.0 Not Reported 0.00 N 0.00 E 0.00 NE No 0.000 No Precipitation 05/10/2022 07:42 PM 05/10/2022 07:47 PM 0.000 0.000 0.000 0.000 0.000 Not Reported Not Reported
05/24/2022 11:50 PM 57.02 47.66 38.12 78.26 46.58 49.0 Not Reported 0.00 N 0.00 E 0.00 NE No 0.000 No Precipitation 05/10/2022 07:42 PM 05/10/2022 07:47 PM 0.000 0.000 0.000 0.000 0.000 Not Reported Not Reported
05/24/2022 11:55 PM 57.02 47.84 38.48 78.26 46.58 49.0 Not Reported 0.00 N 0.00 E 0.00 NE No 0.000 No Precipitation 05/10/2022 07:42 PM 05/10/2022 07:47 PM 0.000 0.000 0.000 0.000 0.000 Not Reported Not Reported